sensor_id;sensor_type;location;lat;lon;timestamp;P1;durP1;ratioP1;P2;durP2;ratioP2
9178;SDS011;4624;48.126;11.546;2023-03-03T00:00:39;31.83;;;17.63;;
9178;SDS011;4624;48.126;11.546;2023-03-03T00:03:06;31.63;;;17.80;;
9178;SDS011;4624;48.126;11.546;2023-03-03T00:05:36;30.33;;;17.73;;
9178;SDS011;4624;48.126;11.546;2023-03-03T00:08:04;31.13;;;17.63;;
9178;SDS011;4624;48.126;11.546;2023-03-03T00:10:31;32.07;;;19.33;;
9178;SDS011;4624;48.126;11.546;2023-03-03T00:12:58;29.03;;;18.60;;
9178;SDS011;4624;48.126;11.546;2023-03-03T00:15:25;29.00;;;17.57;;
9178;SDS011;4624;48.126;11.546;2023-03-03T00:17:53;29.50;;;17.87;;
9178;SDS011;4624;48.126;11.546;2023-03-03T00:20:34;29.53;;;17.30;;
9178;SDS011;4624;48.126;11.546;2023-03-03T00:23:11;29.33;;;16.93;;
9178;SDS011;4624;48.126;11.546;2023-03-03T00:25:42;27.30;;;17.27;;
9178;SDS011;4624;48.126;11.546;2023-03-03T00:28:15;31.10;;;18.57;;
9178;SDS011;4624;48.126;11.546;2023-03-03T00:30:53;32.50;;;18.83;;
9178;SDS011;4624;48.126;11.546;2023-03-03T00:33:24;29.97;;;17.17;;
9178;SDS011;4624;48.126;11.546;2023-03-03T00:35:54;30.17;;;18.47;;
9178;SDS011;4624;48.126;11.546;2023-03-03T00:38:22;28.90;;;17.40;;
9178;SDS011;4624;48.126;11.546;2023-03-03T00:40:49;30.53;;;17.90;;
9178;SDS011;4624;48.126;11.546;2023-03-03T00:43:17;31.50;;;17.40;;
9178;SDS011;4624;48.126;11.546;2023-03-03T00:45:45;30.13;;;18.47;;
9178;SDS011;4624;48.126;11.546;2023-03-03T00:48:18;30.17;;;18.80;;
9178;SDS011;4624;48.126;11.546;2023-03-03T00:50:51;30.30;;;17.53;;
9178;SDS011;4624;48.126;11.546;2023-03-03T00:53:21;33.33;;;18.77;;
9178;SDS011;4624;48.126;11.546;2023-03-03T00:55:49;29.40;;;17.57;;
9178;SDS011;4624;48.126;11.546;2023-03-03T00:58:17;32.10;;;18.17;;
9178;SDS011;4624;48.126;11.546;2023-03-03T01:00:45;31.73;;;18.03;;
9178;SDS011;4624;48.126;11.546;2023-03-03T01:03:14;27.57;;;16.87;;
9178;SDS011;4624;48.126;11.546;2023-03-03T01:05:42;31.70;;;18.13;;
9178;SDS011;4624;48.126;11.546;2023-03-03T01:08:09;30.60;;;18.40;;
9178;SDS011;4624;48.126;11.546;2023-03-03T01:10:39;30.47;;;18.23;;
9178;SDS011;4624;48.126;11.546;2023-03-03T01:13:08;33.47;;;18.40;;
9178;SDS011;4624;48.126;11.546;2023-03-03T01:15:36;32.03;;;18.97;;
9178;SDS011;4624;48.126;11.546;2023-03-03T01:18:04;29.43;;;17.50;;
9178;SDS011;4624;48.126;11.546;2023-03-03T01:20:31;31.10;;;18.83;;
9178;SDS011;4624;48.126;11.546;2023-03-03T01:22:57;35.50;;;19.40;;
9178;SDS011;4624;48.126;11.546;2023-03-03T01:25:24;31.20;;;18.03;;
9178;SDS011;4624;48.126;11.546;2023-03-03T01:27:53;34.13;;;19.47;;
9178;SDS011;4624;48.126;11.546;2023-03-03T01:30:20;30.13;;;17.70;;
9178;SDS011;4624;48.126;11.546;2023-03-03T01:32:47;31.20;;;19.03;;
9178;SDS011;4624;48.126;11.546;2023-03-03T01:35:14;33.27;;;18.80;;
9178;SDS011;4624;48.126;11.546;2023-03-03T01:37:41;30.93;;;18.57;;
9178;SDS011;4624;48.126;11.546;2023-03-03T01:40:11;31.67;;;19.03;;
9178;SDS011;4624;48.126;11.546;2023-03-03T01:42:40;29.83;;;18.63;;
9178;SDS011;4624;48.126;11.546;2023-03-03T01:45:13;30.77;;;18.40;;
9178;SDS011;4624;48.126;11.546;2023-03-03T01:47:46;32.93;;;18.77;;
9178;SDS011;4624;48.126;11.546;2023-03-03T01:50:16;29.60;;;17.83;;
9178;SDS011;4624;48.126;11.546;2023-03-03T01:52:48;29.90;;;18.93;;
9178;SDS011;4624;48.126;11.546;2023-03-03T01:55:17;28.83;;;18.07;;
9178;SDS011;4624;48.126;11.546;2023-03-03T01:57:47;29.83;;;18.70;;
9178;SDS011;4624;48.126;11.546;2023-03-03T02:00:21;29.20;;;18.70;;
9178;SDS011;4624;48.126;11.546;2023-03-03T02:02:48;29.50;;;17.63;;
9178;SDS011;4624;48.126;11.546;2023-03-03T02:05:16;29.80;;;18.10;;
9178;SDS011;4624;48.126;11.546;2023-03-03T02:07:43;30.87;;;18.30;;
9178;SDS011;4624;48.126;11.546;2023-03-03T02:10:11;34.00;;;18.83;;
9178;SDS011;4624;48.126;11.546;2023-03-03T02:12:40;31.80;;;18.90;;
9178;SDS011;4624;48.126;11.546;2023-03-03T02:15:15;32.37;;;18.20;;
9178;SDS011;4624;48.126;11.546;2023-03-03T02:17:47;29.17;;;17.77;;
9178;SDS011;4624;48.126;11.546;2023-03-03T02:20:19;30.00;;;18.77;;
9178;SDS011;4624;48.126;11.546;2023-03-03T02:23:01;29.80;;;18.03;;
9178;SDS011;4624;48.126;11.546;2023-03-03T02:25:33;30.20;;;18.47;;
9178;SDS011;4624;48.126;11.546;2023-03-03T02:28:08;26.27;;;17.30;;
9178;SDS011;4624;48.126;11.546;2023-03-03T02:30:36;31.93;;;18.00;;
9178;SDS011;4624;48.126;11.546;2023-03-03T02:33:04;28.87;;;18.47;;
9178;SDS011;4624;48.126;11.546;2023-03-03T02:35:32;30.57;;;18.43;;
9178;SDS011;4624;48.126;11.546;2023-03-03T02:38:02;32.07;;;18.90;;
9178;SDS011;4624;48.126;11.546;2023-03-03T02:40:36;27.63;;;17.53;;
9178;SDS011;4624;48.126;11.546;2023-03-03T02:43:08;27.07;;;17.13;;
9178;SDS011;4624;48.126;11.546;2023-03-03T02:45:40;27.20;;;17.60;;
9178;SDS011;4624;48.126;11.546;2023-03-03T02:48:08;29.30;;;17.00;;
9178;SDS011;4624;48.126;11.546;2023-03-03T02:50:35;29.53;;;17.00;;
9178;SDS011;4624;48.126;11.546;2023-03-03T02:53:02;30.47;;;18.33;;
9178;SDS011;4624;48.126;11.546;2023-03-03T02:55:29;29.03;;;17.87;;
9178;SDS011;4624;48.126;11.546;2023-03-03T02:57:56;29.57;;;18.53;;
9178;SDS011;4624;48.126;11.546;2023-03-03T03:00:24;31.30;;;19.17;;
9178;SDS011;4624;48.126;11.546;2023-03-03T03:02:51;33.20;;;18.73;;
9178;SDS011;4624;48.126;11.546;2023-03-03T03:05:17;29.90;;;17.90;;
9178;SDS011;4624;48.126;11.546;2023-03-03T03:07:44;30.27;;;17.93;;
9178;SDS011;4624;48.126;11.546;2023-03-03T03:10:11;31.40;;;18.23;;
9178;SDS011;4624;48.126;11.546;2023-03-03T03:12:37;30.50;;;17.83;;
9178;SDS011;4624;48.126;11.546;2023-03-03T03:15:05;28.37;;;17.63;;
9178;SDS011;4624;48.126;11.546;2023-03-03T03:17:35;32.97;;;18.63;;
9178;SDS011;4624;48.126;11.546;2023-03-03T03:20:02;28.97;;;17.13;;
9178;SDS011;4624;48.126;11.546;2023-03-03T03:22:29;28.57;;;17.80;;
9178;SDS011;4624;48.126;11.546;2023-03-03T03:24:56;28.57;;;18.67;;
9178;SDS011;4624;48.126;11.546;2023-03-03T03:27:23;28.97;;;17.40;;
9178;SDS011;4624;48.126;11.546;2023-03-03T03:29:50;30.23;;;18.20;;
9178;SDS011;4624;48.126;11.546;2023-03-03T03:32:16;28.07;;;17.03;;
9178;SDS011;4624;48.126;11.546;2023-03-03T03:34:44;29.90;;;18.00;;
9178;SDS011;4624;48.126;11.546;2023-03-03T03:37:11;32.87;;;17.97;;
9178;SDS011;4624;48.126;11.546;2023-03-03T03:39:38;29.10;;;17.93;;
9178;SDS011;4624;48.126;11.546;2023-03-03T03:42:05;27.30;;;17.17;;
9178;SDS011;4624;48.126;11.546;2023-03-03T03:44:32;29.07;;;17.93;;
9178;SDS011;4624;48.126;11.546;2023-03-03T03:46:58;30.23;;;18.23;;
9178;SDS011;4624;48.126;11.546;2023-03-03T03:49:25;25.27;;;17.00;;
9178;SDS011;4624;48.126;11.546;2023-03-03T03:51:53;29.60;;;18.60;;
9178;SDS011;4624;48.126;11.546;2023-03-03T03:54:20;26.43;;;17.03;;
9178;SDS011;4624;48.126;11.546;2023-03-03T03:56:47;29.23;;;17.87;;
9178;SDS011;4624;48.126;11.546;2023-03-03T03:59:13;30.87;;;17.93;;
9178;SDS011;4624;48.126;11.546;2023-03-03T04:01:40;27.40;;;16.40;;
9178;SDS011;4624;48.126;11.546;2023-03-03T04:04:07;30.80;;;17.80;;
9178;SDS011;4624;48.126;11.546;2023-03-03T04:06:34;29.93;;;18.77;;
9178;SDS011;4624;48.126;11.546;2023-03-03T04:09:02;29.87;;;17.43;;
9178;SDS011;4624;48.126;11.546;2023-03-03T04:11:29;31.50;;;18.20;;
9178;SDS011;4624;48.126;11.546;2023-03-03T04:13:55;29.00;;;17.43;;
9178;SDS011;4624;48.126;11.546;2023-03-03T04:16:22;28.60;;;16.87;;
9178;SDS011;4624;48.126;11.546;2023-03-03T04:18:49;28.73;;;17.53;;
9178;SDS011;4624;48.126;11.546;2023-03-03T04:21:16;28.30;;;16.30;;
9178;SDS011;4624;48.126;11.546;2023-03-03T04:23:42;29.13;;;17.53;;
9178;SDS011;4624;48.126;11.546;2023-03-03T04:26:11;26.87;;;16.93;;
9178;SDS011;4624;48.126;11.546;2023-03-03T04:28:37;31.20;;;18.67;;
9178;SDS011;4624;48.126;11.546;2023-03-03T04:31:04;27.13;;;17.33;;
9178;SDS011;4624;48.126;11.546;2023-03-03T04:33:31;30.37;;;18.17;;
9178;SDS011;4624;48.126;11.546;2023-03-03T04:35:57;26.87;;;17.17;;
9178;SDS011;4624;48.126;11.546;2023-03-03T04:38:24;28.53;;;17.40;;
9178;SDS011;4624;48.126;11.546;2023-03-03T04:40:51;29.77;;;16.27;;
9178;SDS011;4624;48.126;11.546;2023-03-03T04:43:19;26.47;;;15.83;;
9178;SDS011;4624;48.126;11.546;2023-03-03T04:45:47;28.07;;;17.17;;
9178;SDS011;4624;48.126;11.546;2023-03-03T04:48:14;28.27;;;17.33;;
9178;SDS011;4624;48.126;11.546;2023-03-03T04:50:41;29.50;;;18.07;;
9178;SDS011;4624;48.126;11.546;2023-03-03T04:53:08;26.37;;;17.33;;
9178;SDS011;4624;48.126;11.546;2023-03-03T04:55:35;28.57;;;17.87;;
9178;SDS011;4624;48.126;11.546;2023-03-03T04:58:02;28.20;;;17.80;;
9178;SDS011;4624;48.126;11.546;2023-03-03T05:00:31;30.30;;;18.17;;
9178;SDS011;4624;48.126;11.546;2023-03-03T05:02:57;28.00;;;18.27;;
9178;SDS011;4624;48.126;11.546;2023-03-03T05:05:24;30.67;;;17.00;;
9178;SDS011;4624;48.126;11.546;2023-03-03T05:07:51;31.73;;;17.87;;
9178;SDS011;4624;48.126;11.546;2023-03-03T05:10:18;31.87;;;19.47;;
9178;SDS011;4624;48.126;11.546;2023-03-03T05:12:45;33.33;;;18.87;;
9178;SDS011;4624;48.126;11.546;2023-03-03T05:15:11;27.53;;;17.80;;
9178;SDS011;4624;48.126;11.546;2023-03-03T05:17:39;28.10;;;17.57;;
9178;SDS011;4624;48.126;11.546;2023-03-03T05:20:07;31.93;;;18.60;;
9178;SDS011;4624;48.126;11.546;2023-03-03T05:22:35;29.40;;;18.57;;
9178;SDS011;4624;48.126;11.546;2023-03-03T05:25:01;29.83;;;18.47;;
9178;SDS011;4624;48.126;11.546;2023-03-03T05:27:28;32.03;;;18.73;;
9178;SDS011;4624;48.126;11.546;2023-03-03T05:29:55;30.43;;;19.37;;
9178;SDS011;4624;48.126;11.546;2023-03-03T05:32:22;32.30;;;20.73;;
9178;SDS011;4624;48.126;11.546;2023-03-03T05:34:50;32.47;;;18.17;;
9178;SDS011;4624;48.126;11.546;2023-03-03T05:37:17;33.10;;;19.07;;
9178;SDS011;4624;48.126;11.546;2023-03-03T05:39:43;34.43;;;19.30;;
9178;SDS011;4624;48.126;11.546;2023-03-03T05:42:10;32.70;;;19.23;;
9178;SDS011;4624;48.126;11.546;2023-03-03T05:44:38;33.97;;;19.93;;
9178;SDS011;4624;48.126;11.546;2023-03-03T05:47:05;33.57;;;19.27;;
9178;SDS011;4624;48.126;11.546;2023-03-03T05:49:31;33.33;;;19.23;;
9178;SDS011;4624;48.126;11.546;2023-03-03T05:52:00;32.13;;;19.63;;
9178;SDS011;4624;48.126;11.546;2023-03-03T05:54:27;36.67;;;20.50;;
9178;SDS011;4624;48.126;11.546;2023-03-03T05:56:53;34.37;;;20.30;;
9178;SDS011;4624;48.126;11.546;2023-03-03T05:59:21;34.57;;;20.17;;
9178;SDS011;4624;48.126;11.546;2023-03-03T06:01:48;33.03;;;20.03;;
9178;SDS011;4624;48.126;11.546;2023-03-03T06:04:15;32.80;;;20.57;;
9178;SDS011;4624;48.126;11.546;2023-03-03T06:06:41;35.47;;;20.53;;
9178;SDS011;4624;48.126;11.546;2023-03-03T06:09:10;33.60;;;19.63;;
9178;SDS011;4624;48.126;11.546;2023-03-03T06:11:36;32.30;;;19.57;;
9178;SDS011;4624;48.126;11.546;2023-03-03T06:14:03;34.77;;;20.67;;
9178;SDS011;4624;48.126;11.546;2023-03-03T06:16:30;36.80;;;20.63;;
9178;SDS011;4624;48.126;11.546;2023-03-03T06:18:57;30.60;;;19.43;;
9178;SDS011;4624;48.126;11.546;2023-03-03T06:21:24;37.30;;;20.13;;
9178;SDS011;4624;48.126;11.546;2023-03-03T06:23:50;33.10;;;20.20;;
9178;SDS011;4624;48.126;11.546;2023-03-03T06:26:19;39.73;;;21.50;;
9178;SDS011;4624;48.126;11.546;2023-03-03T06:28:45;37.73;;;21.17;;
9178;SDS011;4624;48.126;11.546;2023-03-03T06:31:14;34.93;;;21.37;;
9178;SDS011;4624;48.126;11.546;2023-03-03T06:33:41;39.53;;;21.17;;
9178;SDS011;4624;48.126;11.546;2023-03-03T06:36:07;33.93;;;20.20;;
9178;SDS011;4624;48.126;11.546;2023-03-03T06:38:35;33.50;;;20.20;;
9178;SDS011;4624;48.126;11.546;2023-03-03T06:41:01;37.07;;;21.80;;
9178;SDS011;4624;48.126;11.546;2023-03-03T06:43:32;38.37;;;22.13;;
9178;SDS011;4624;48.126;11.546;2023-03-03T06:45:59;37.53;;;20.90;;
9178;SDS011;4624;48.126;11.546;2023-03-03T06:48:26;35.40;;;21.13;;
9178;SDS011;4624;48.126;11.546;2023-03-03T06:50:53;41.60;;;23.00;;
9178;SDS011;4624;48.126;11.546;2023-03-03T06:53:20;34.87;;;21.10;;
9178;SDS011;4624;48.126;11.546;2023-03-03T06:55:46;35.53;;;22.37;;
9178;SDS011;4624;48.126;11.546;2023-03-03T06:58:14;35.90;;;21.43;;
9178;SDS011;4624;48.126;11.546;2023-03-03T07:00:44;37.20;;;21.23;;
9178;SDS011;4624;48.126;11.546;2023-03-03T07:03:16;37.30;;;22.03;;
9178;SDS011;4624;48.126;11.546;2023-03-03T07:05:46;38.17;;;22.10;;
9178;SDS011;4624;48.126;11.546;2023-03-03T07:08:14;38.77;;;22.33;;
9178;SDS011;4624;48.126;11.546;2023-03-03T07:10:42;36.30;;;21.87;;
9178;SDS011;4624;48.126;11.546;2023-03-03T07:13:16;36.87;;;23.13;;
9178;SDS011;4624;48.126;11.546;2023-03-03T07:15:47;35.33;;;21.70;;
9178;SDS011;4624;48.126;11.546;2023-03-03T07:18:24;37.07;;;22.60;;
9178;SDS011;4624;48.126;11.546;2023-03-03T07:20:58;40.30;;;23.10;;
9178;SDS011;4624;48.126;11.546;2023-03-03T07:23:33;36.10;;;22.37;;
9178;SDS011;4624;48.126;11.546;2023-03-03T07:26:06;38.60;;;21.97;;
9178;SDS011;4624;48.126;11.546;2023-03-03T07:28:35;37.17;;;21.87;;
9178;SDS011;4624;48.126;11.546;2023-03-03T07:31:14;38.70;;;22.57;;
9178;SDS011;4624;48.126;11.546;2023-03-03T07:33:50;37.77;;;22.33;;
9178;SDS011;4624;48.126;11.546;2023-03-03T07:36:25;38.40;;;21.77;;
9178;SDS011;4624;48.126;11.546;2023-03-03T07:38:54;36.90;;;22.13;;
9178;SDS011;4624;48.126;11.546;2023-03-03T07:41:24;36.57;;;22.30;;
9178;SDS011;4624;48.126;11.546;2023-03-03T07:43:51;39.67;;;23.37;;
9178;SDS011;4624;48.126;11.546;2023-03-03T07:46:22;34.37;;;22.17;;
9178;SDS011;4624;48.126;11.546;2023-03-03T07:48:52;36.77;;;22.20;;
9178;SDS011;4624;48.126;11.546;2023-03-03T07:51:21;34.97;;;21.90;;
9178;SDS011;4624;48.126;11.546;2023-03-03T07:53:52;40.30;;;24.07;;
9178;SDS011;4624;48.126;11.546;2023-03-03T07:56:23;42.17;;;23.07;;
9178;SDS011;4624;48.126;11.546;2023-03-03T07:58:54;39.80;;;22.63;;
9178;SDS011;4624;48.126;11.546;2023-03-03T08:01:26;40.37;;;24.57;;
9178;SDS011;4624;48.126;11.546;2023-03-03T08:04:04;40.70;;;23.37;;
9178;SDS011;4624;48.126;11.546;2023-03-03T08:06:44;39.70;;;23.20;;
9178;SDS011;4624;48.126;11.546;2023-03-03T08:09:28;40.87;;;23.27;;
9178;SDS011;4624;48.126;11.546;2023-03-03T08:12:15;37.43;;;22.03;;
9178;SDS011;4624;48.126;11.546;2023-03-03T08:14:56;38.60;;;22.33;;
9178;SDS011;4624;48.126;11.546;2023-03-03T08:17:37;40.27;;;23.53;;
9178;SDS011;4624;48.126;11.546;2023-03-03T08:20:10;40.77;;;22.67;;
9178;SDS011;4624;48.126;11.546;2023-03-03T08:23:06;35.60;;;22.90;;
9178;SDS011;4624;48.126;11.546;2023-03-03T08:25:33;40.27;;;22.90;;
9178;SDS011;4624;48.126;11.546;2023-03-03T08:28:00;39.60;;;24.03;;
9178;SDS011;4624;48.126;11.546;2023-03-03T08:30:27;37.53;;;22.67;;
9178;SDS011;4624;48.126;11.546;2023-03-03T08:32:56;43.03;;;24.47;;
9178;SDS011;4624;48.126;11.546;2023-03-03T08:35:23;40.13;;;23.60;;
9178;SDS011;4624;48.126;11.546;2023-03-03T08:37:50;39.80;;;24.27;;
9178;SDS011;4624;48.126;11.546;2023-03-03T08:40:17;39.13;;;22.90;;
9178;SDS011;4624;48.126;11.546;2023-03-03T08:42:44;37.70;;;23.77;;
9178;SDS011;4624;48.126;11.546;2023-03-03T08:45:11;37.63;;;23.87;;
9178;SDS011;4624;48.126;11.546;2023-03-03T08:47:38;37.23;;;22.90;;
9178;SDS011;4624;48.126;11.546;2023-03-03T08:50:07;39.30;;;23.97;;
9178;SDS011;4624;48.126;11.546;2023-03-03T08:52:35;39.30;;;23.20;;
9178;SDS011;4624;48.126;11.546;2023-03-03T08:55:01;42.57;;;23.67;;
9178;SDS011;4624;48.126;11.546;2023-03-03T08:57:29;37.50;;;22.73;;
9178;SDS011;4624;48.126;11.546;2023-03-03T08:59:55;38.07;;;22.97;;
9178;SDS011;4624;48.126;11.546;2023-03-03T09:02:22;37.70;;;23.57;;
9178;SDS011;4624;48.126;11.546;2023-03-03T09:04:49;38.73;;;23.03;;
9178;SDS011;4624;48.126;11.546;2023-03-03T09:07:17;36.00;;;22.53;;
9178;SDS011;4624;48.126;11.546;2023-03-03T09:09:44;36.20;;;22.93;;
9178;SDS011;4624;48.126;11.546;2023-03-03T09:12:14;40.73;;;22.73;;
9178;SDS011;4624;48.126;11.546;2023-03-03T09:14:42;38.23;;;22.77;;
9178;SDS011;4624;48.126;11.546;2023-03-03T09:17:17;37.10;;;24.17;;
9178;SDS011;4624;48.126;11.546;2023-03-03T09:19:50;42.27;;;23.63;;
9178;SDS011;4624;48.126;11.546;2023-03-03T09:22:19;40.80;;;23.73;;
9178;SDS011;4624;48.126;11.546;2023-03-03T09:24:48;41.17;;;23.43;;
9178;SDS011;4624;48.126;11.546;2023-03-03T09:27:18;39.93;;;24.43;;
9178;SDS011;4624;48.126;11.546;2023-03-03T09:29:52;41.40;;;22.87;;
9178;SDS011;4624;48.126;11.546;2023-03-03T09:32:21;37.07;;;24.37;;
9178;SDS011;4624;48.126;11.546;2023-03-03T09:34:55;39.03;;;23.47;;
9178;SDS011;4624;48.126;11.546;2023-03-03T09:37:25;40.40;;;23.33;;
9178;SDS011;4624;48.126;11.546;2023-03-03T09:39:54;40.33;;;24.77;;
9178;SDS011;4624;48.126;11.546;2023-03-03T09:48:26;43.43;;;24.80;;
9178;SDS011;4624;48.126;11.546;2023-03-03T09:51:10;38.00;;;24.13;;
9178;SDS011;4624;48.126;11.546;2023-03-03T09:53:53;41.03;;;23.97;;
9178;SDS011;4624;48.126;11.546;2023-03-03T09:56:31;38.53;;;23.37;;
9178;SDS011;4624;48.126;11.546;2023-03-03T09:59:04;34.20;;;22.97;;
9178;SDS011;4624;48.126;11.546;2023-03-03T10:01:53;40.37;;;23.33;;
9178;SDS011;4624;48.126;11.546;2023-03-03T10:04:41;39.30;;;24.07;;
9178;SDS011;4624;48.126;11.546;2023-03-03T10:07:18;38.53;;;24.10;;
9178;SDS011;4624;48.126;11.546;2023-03-03T10:10:00;36.30;;;23.60;;
9178;SDS011;4624;48.126;11.546;2023-03-03T10:12:37;39.20;;;24.30;;
9178;SDS011;4624;48.126;11.546;2023-03-03T10:15:15;41.73;;;23.70;;
9178;SDS011;4624;48.126;11.546;2023-03-03T10:17:50;37.00;;;23.50;;
9178;SDS011;4624;48.126;11.546;2023-03-03T10:23:18;40.17;;;24.10;;
9178;SDS011;4624;48.126;11.546;2023-03-03T10:25:52;36.50;;;24.30;;
9178;SDS011;4624;48.126;11.546;2023-03-03T10:28:28;37.60;;;24.07;;
9178;SDS011;4624;48.126;11.546;2023-03-03T10:31:15;36.83;;;25.03;;
9178;SDS011;4624;48.126;11.546;2023-03-03T10:33:51;39.27;;;24.67;;
9178;SDS011;4624;48.126;11.546;2023-03-03T10:36:27;37.33;;;23.37;;
9178;SDS011;4624;48.126;11.546;2023-03-03T10:39:08;36.50;;;24.17;;
9178;SDS011;4624;48.126;11.546;2023-03-03T10:41:57;38.67;;;24.67;;
9178;SDS011;4624;48.126;11.546;2023-03-03T10:44:40;43.87;;;23.57;;
9178;SDS011;4624;48.126;11.546;2023-03-03T10:47:40;40.27;;;25.07;;
9178;SDS011;4624;48.126;11.546;2023-03-03T10:50:20;36.83;;;22.97;;
9178;SDS011;4624;48.126;11.546;2023-03-03T10:52:56;38.93;;;25.13;;
9178;SDS011;4624;48.126;11.546;2023-03-03T10:55:41;42.07;;;25.10;;
9178;SDS011;4624;48.126;11.546;2023-03-03T10:58:24;40.33;;;24.80;;
9178;SDS011;4624;48.126;11.546;2023-03-03T11:01:07;43.13;;;24.37;;
9178;SDS011;4624;48.126;11.546;2023-03-03T11:03:48;42.30;;;23.77;;
9178;SDS011;4624;48.126;11.546;2023-03-03T11:06:34;37.37;;;24.10;;
9178;SDS011;4624;48.126;11.546;2023-03-03T11:09:09;38.40;;;24.07;;
9178;SDS011;4624;48.126;11.546;2023-03-03T11:11:58;39.33;;;24.70;;
9178;SDS011;4624;48.126;11.546;2023-03-03T11:14:30;34.83;;;23.63;;
9178;SDS011;4624;48.126;11.546;2023-03-03T11:17:03;35.20;;;24.40;;
9178;SDS011;4624;48.126;11.546;2023-03-03T11:19:45;37.07;;;24.00;;
9178;SDS011;4624;48.126;11.546;2023-03-03T11:22:24;39.77;;;24.93;;
9178;SDS011;4624;48.126;11.546;2023-03-03T11:25:03;37.90;;;23.50;;
9178;SDS011;4624;48.126;11.546;2023-03-03T11:27:47;37.20;;;24.33;;
9178;SDS011;4624;48.126;11.546;2023-03-03T11:30:29;39.67;;;24.10;;
9178;SDS011;4624;48.126;11.546;2023-03-03T11:33:05;37.90;;;24.17;;
9178;SDS011;4624;48.126;11.546;2023-03-03T11:35:37;36.60;;;24.17;;
9178;SDS011;4624;48.126;11.546;2023-03-03T11:38:15;37.13;;;23.97;;
9178;SDS011;4624;48.126;11.546;2023-03-03T11:40:52;36.77;;;24.50;;
9178;SDS011;4624;48.126;11.546;2023-03-03T11:43:25;35.80;;;23.67;;
9178;SDS011;4624;48.126;11.546;2023-03-03T11:45:56;37.47;;;25.73;;
9178;SDS011;4624;48.126;11.546;2023-03-03T11:48:31;40.87;;;24.23;;
9178;SDS011;4624;48.126;11.546;2023-03-03T11:51:02;39.73;;;25.33;;
9178;SDS011;4624;48.126;11.546;2023-03-03T11:53:37;45.33;;;26.37;;
9178;SDS011;4624;48.126;11.546;2023-03-03T11:56:15;37.87;;;23.80;;
9178;SDS011;4624;48.126;11.546;2023-03-03T11:58:47;35.93;;;24.03;;
9178;SDS011;4624;48.126;11.546;2023-03-03T12:01:26;40.50;;;25.17;;
9178;SDS011;4624;48.126;11.546;2023-03-03T12:03:59;36.97;;;24.20;;
9178;SDS011;4624;48.126;11.546;2023-03-03T12:06:29;38.43;;;24.00;;
9178;SDS011;4624;48.126;11.546;2023-03-03T12:09:07;38.47;;;24.50;;
9178;SDS011;4624;48.126;11.546;2023-03-03T12:11:46;39.20;;;24.87;;
9178;SDS011;4624;48.126;11.546;2023-03-03T12:14:17;40.33;;;25.47;;
9178;SDS011;4624;48.126;11.546;2023-03-03T12:17:02;39.80;;;25.27;;
9178;SDS011;4624;48.126;11.546;2023-03-03T12:19:36;38.53;;;24.23;;
9178;SDS011;4624;48.126;11.546;2023-03-03T12:22:20;38.27;;;25.17;;
9178;SDS011;4624;48.126;11.546;2023-03-03T12:25:07;38.17;;;23.90;;
9178;SDS011;4624;48.126;11.546;2023-03-03T12:27:44;39.90;;;25.30;;
9178;SDS011;4624;48.126;11.546;2023-03-03T12:30:17;35.40;;;24.23;;
9178;SDS011;4624;48.126;11.546;2023-03-03T12:32:57;36.77;;;24.53;;
9178;SDS011;4624;48.126;11.546;2023-03-03T12:35:45;40.77;;;24.43;;
9178;SDS011;4624;48.126;11.546;2023-03-03T12:38:22;36.43;;;25.33;;
9178;SDS011;4624;48.126;11.546;2023-03-03T12:40:58;37.57;;;24.60;;
9178;SDS011;4624;48.126;11.546;2023-03-03T12:43:36;39.30;;;24.17;;
9178;SDS011;4624;48.126;11.546;2023-03-03T12:46:11;36.00;;;24.40;;
9178;SDS011;4624;48.126;11.546;2023-03-03T12:48:46;36.20;;;23.87;;
9178;SDS011;4624;48.126;11.546;2023-03-03T12:51:16;36.57;;;24.03;;
9178;SDS011;4624;48.126;11.546;2023-03-03T12:54:01;35.70;;;24.00;;
9178;SDS011;4624;48.126;11.546;2023-03-03T12:56:45;36.83;;;24.83;;
9178;SDS011;4624;48.126;11.546;2023-03-03T12:59:19;34.60;;;22.83;;
9178;SDS011;4624;48.126;11.546;2023-03-03T13:01:58;34.67;;;23.40;;
9178;SDS011;4624;48.126;11.546;2023-03-03T13:04:45;37.37;;;23.40;;
9178;SDS011;4624;48.126;11.546;2023-03-03T13:07:18;34.07;;;23.97;;
9178;SDS011;4624;48.126;11.546;2023-03-03T13:09:58;36.80;;;24.50;;
9178;SDS011;4624;48.126;11.546;2023-03-03T13:12:33;33.67;;;23.63;;
9178;SDS011;4624;48.126;11.546;2023-03-03T13:15:12;36.67;;;24.60;;
9178;SDS011;4624;48.126;11.546;2023-03-03T13:17:43;32.17;;;22.53;;
9178;SDS011;4624;48.126;11.546;2023-03-03T13:20:24;33.93;;;23.73;;
9178;SDS011;4624;48.126;11.546;2023-03-03T13:23:03;38.43;;;25.07;;
9178;SDS011;4624;48.126;11.546;2023-03-03T13:25:39;34.67;;;23.07;;
9178;SDS011;4624;48.126;11.546;2023-03-03T13:28:13;37.23;;;23.07;;
9178;SDS011;4624;48.126;11.546;2023-03-03T13:30:47;36.50;;;23.70;;
9178;SDS011;4624;48.126;11.546;2023-03-03T13:33:16;37.17;;;22.80;;
9178;SDS011;4624;48.126;11.546;2023-03-03T13:35:50;36.37;;;23.10;;
9178;SDS011;4624;48.126;11.546;2023-03-03T13:38:21;33.60;;;22.97;;
9178;SDS011;4624;48.126;11.546;2023-03-03T13:40:53;35.10;;;23.67;;
9178;SDS011;4624;48.126;11.546;2023-03-03T13:43:28;32.27;;;22.43;;
9178;SDS011;4624;48.126;11.546;2023-03-03T13:46:00;35.30;;;24.20;;
9178;SDS011;4624;48.126;11.546;2023-03-03T13:48:39;34.83;;;22.63;;
9178;SDS011;4624;48.126;11.546;2023-03-03T13:51:25;36.40;;;23.03;;
9178;SDS011;4624;48.126;11.546;2023-03-03T13:54:03;34.53;;;22.33;;
9178;SDS011;4624;48.126;11.546;2023-03-03T13:56:41;32.13;;;22.37;;
9178;SDS011;4624;48.126;11.546;2023-03-03T13:59:25;34.90;;;23.00;;
9178;SDS011;4624;48.126;11.546;2023-03-03T14:02:00;32.03;;;22.03;;
9178;SDS011;4624;48.126;11.546;2023-03-03T14:04:41;35.40;;;24.60;;
9178;SDS011;4624;48.126;11.546;2023-03-03T14:07:18;33.57;;;22.30;;
9178;SDS011;4624;48.126;11.546;2023-03-03T14:09:54;32.80;;;23.23;;
9178;SDS011;4624;48.126;11.546;2023-03-03T14:12:28;36.00;;;23.03;;
9178;SDS011;4624;48.126;11.546;2023-03-03T14:15:05;35.67;;;24.17;;
9178;SDS011;4624;48.126;11.546;2023-03-03T14:17:44;40.13;;;25.47;;
9178;SDS011;4624;48.126;11.546;2023-03-03T14:20:21;33.83;;;23.20;;
9178;SDS011;4624;48.126;11.546;2023-03-03T14:22:54;33.73;;;21.73;;
9178;SDS011;4624;48.126;11.546;2023-03-03T14:25:23;33.00;;;22.27;;
9178;SDS011;4624;48.126;11.546;2023-03-03T14:27:57;33.80;;;22.00;;
9178;SDS011;4624;48.126;11.546;2023-03-03T14:30:31;34.50;;;22.17;;
9178;SDS011;4624;48.126;11.546;2023-03-03T14:33:04;32.70;;;22.00;;
9178;SDS011;4624;48.126;11.546;2023-03-03T14:35:43;30.53;;;21.77;;
9178;SDS011;4624;48.126;11.546;2023-03-03T14:38:17;32.23;;;22.30;;
9178;SDS011;4624;48.126;11.546;2023-03-03T14:40:45;33.57;;;22.50;;
9178;SDS011;4624;48.126;11.546;2023-03-03T14:43:21;34.63;;;22.83;;
9178;SDS011;4624;48.126;11.546;2023-03-03T14:45:50;33.67;;;23.53;;
9178;SDS011;4624;48.126;11.546;2023-03-03T14:48:18;34.07;;;23.17;;
9178;SDS011;4624;48.126;11.546;2023-03-03T14:50:47;35.90;;;22.43;;
9178;SDS011;4624;48.126;11.546;2023-03-03T14:53:20;38.53;;;23.43;;
9178;SDS011;4624;48.126;11.546;2023-03-03T14:56:12;34.37;;;22.57;;
9178;SDS011;4624;48.126;11.546;2023-03-03T14:58:42;33.90;;;21.97;;
9178;SDS011;4624;48.126;11.546;2023-03-03T15:01:16;35.93;;;22.67;;
9178;SDS011;4624;48.126;11.546;2023-03-03T15:03:49;32.90;;;21.57;;
9178;SDS011;4624;48.126;11.546;2023-03-03T15:06:28;31.67;;;21.53;;
9178;SDS011;4624;48.126;11.546;2023-03-03T15:11:49;32.87;;;22.13;;